Time;durP1;ratioP1;P1;durP2;ratioP2;P2;SDS_P1;SDS_P2;PMS_P1;PMS_P2;Temp;Humidity;BMP_temperature;BMP_pressure;BME280_temperature;BME280_humidity;BME280_pressure;Samples;Min_cycle;Max_cycle;Signal;HPM_P1;HPM_P2
2023/06/21 00:01:56;;;;;;;15.15;7.07;;;20.50;98.20;;;;;;5030451;28;20201;-90
2023/06/21 00:04:22;;;;;;;10.80;6.00;;;20.50;98.10;;;;;;5028868;28;20256;-89
2023/06/21 00:06:51;;;;;;;12.30;6.40;;;20.40;97.40;;;;;;5033619;28;20262;-90
2023/06/21 00:09:18;;;;;;;12.20;6.65;;;20.40;97.10;;;;;;5034595;28;20265;-90
2023/06/21 00:11:45;;;;;;;13.85;8.38;;;20.40;96.60;;;;;;5032581;28;20211;-90
2023/06/21 00:14:12;;;;;;;13.10;6.60;;;20.40;96.60;;;;;;5031554;28;20206;-90
2023/06/21 00:16:39;;;;;;;15.07;6.63;;;20.40;96.30;;;;;;5032489;28;20195;-90
2023/06/21 00:19:06;;;;;;;13.95;8.20;;;20.50;96.40;;;;;;5028242;28;20227;-90
2023/06/21 00:21:33;;;;;;;12.90;7.55;;;20.40;96.50;;;;;;5021108;28;20198;-89
2023/06/21 00:24:02;;;;;;;10.40;6.60;;;20.50;96.60;;;;;;5024741;28;20203;-89
2023/06/21 00:26:29;;;;;;;14.25;7.35;;;20.50;96.60;;;;;;5030781;28;20202;-91
2023/06/21 00:28:57;;;;;;;12.23;6.53;;;20.50;96.50;;;;;;5028643;28;20207;-90
2023/06/21 00:31:24;;;;;;;12.55;6.20;;;20.40;96.10;;;;;;5029567;28;20206;-89
2023/06/21 00:33:51;;;;;;;18.88;8.07;;;20.40;96.30;;;;;;5025866;28;20211;-89
2023/06/21 00:36:17;;;;;;;16.08;6.90;;;20.50;95.80;;;;;;5019409;28;20190;-89
2023/06/21 00:38:46;;;;;;;12.10;6.00;;;20.50;94.90;;;;;;4984247;28;20558;-90
2023/06/21 00:41:14;;;;;;;18.10;6.82;;;20.80;95.20;;;;;;5029437;28;20194;-90
2023/06/21 00:43:41;;;;;;;9.48;6.07;;;20.80;94.80;;;;;;5032595;28;20221;-89
2023/06/21 00:46:08;;;;;;;11.07;5.88;;;20.80;94.80;;;;;;5032027;28;20195;-90
2023/06/21 00:48:35;;;;;;;16.55;6.80;;;20.70;95.00;;;;;;5026203;28;20202;-89
2023/06/21 00:51:02;;;;;;;11.85;6.10;;;20.60;95.30;;;;;;5027885;28;20210;-89
2023/06/21 00:53:31;;;;;;;11.15;6.93;;;20.70;95.70;;;;;;5000762;28;20199;-89
2023/06/21 00:56:00;;;;;;;15.45;6.78;;;20.70;96.00;;;;;;5014613;28;20211;-89
2023/06/21 00:58:29;;;;;;;13.20;7.57;;;20.60;95.90;;;;;;5020122;28;20214;-90
2023/06/21 01:00:56;;;;;;;11.75;8.73;;;20.60;96.00;;;;;;5029869;28;20598;-90
2023/06/21 01:03:25;;;;;;;13.48;7.13;;;20.60;96.30;;;;;;5023806;28;20659;-90
2023/06/21 01:06:03;;;;;;;13.07;7.55;;;20.60;96.60;;;;;;5028336;28;20551;-89
2023/06/21 01:08:38;;;;;;;13.38;7.30;;;20.60;96.90;;;;;;5007793;28;20297;-90
2023/06/21 01:11:15;;;;;;;11.35;6.72;;;20.60;97.00;;;;;;5025079;28;20276;-90
2023/06/21 01:13:56;;;;;;;17.63;7.30;;;20.60;96.90;;;;;;5030783;28;20205;-89
2023/06/21 01:16:27;;;;;;;9.93;6.65;;;20.60;97.00;;;;;;5027199;28;20690;-90
2023/06/21 01:18:54;;;;;;;18.13;7.60;;;20.70;96.90;;;;;;5032260;28;20232;-89
2023/06/21 01:21:26;;;;;;;13.25;6.90;;;20.80;97.10;;;;;;5031791;28;20757;-91
2023/06/21 01:24:20;;;;;;;9.35;6.63;;;20.80;97.10;;;;;;5014988;28;20198;-90
2023/06/21 01:26:59;;;;;;;11.80;6.75;;;20.70;97.30;;;;;;5025634;28;20203;-89
2023/06/21 01:29:30;;;;;;;10.70;6.97;;;20.60;97.60;;;;;;5027165;28;20716;-89
2023/06/21 01:31:58;;;;;;;15.27;7.53;;;20.50;97.80;;;;;;5028502;28;20277;-91
2023/06/21 01:34:27;;;;;;;11.45;7.03;;;20.50;98.20;;;;;;5022678;28;20210;-89
2023/06/21 01:36:54;;;;;;;11.70;7.18;;;20.50;98.20;;;;;;5024669;28;20206;-90
2023/06/21 01:39:21;;;;;;;10.98;6.97;;;20.50;98.20;;;;;;5022937;28;20226;-89
2023/06/21 01:41:48;;;;;;;9.90;6.78;;;20.50;98.10;;;;;;5015799;28;20671;-89
2023/06/21 01:44:16;;;;;;;10.23;6.93;;;20.50;98.20;;;;;;5025918;28;20200;-90
2023/06/21 01:46:45;;;;;;;13.73;7.20;;;20.30;98.10;;;;;;5030608;28;20277;-89
2023/06/21 01:49:14;;;;;;;12.45;6.95;;;20.30;98.10;;;;;;5013569;28;20203;-89
2023/06/21 01:51:43;;;;;;;11.15;7.07;;;20.30;98.10;;;;;;4994555;28;20194;-90
2023/06/21 01:54:11;;;;;;;12.27;6.30;;;20.30;97.80;;;;;;5023973;28;20616;-90
2023/06/21 01:56:41;;;;;;;11.23;6.53;;;20.30;98.00;;;;;;5010092;28;20217;-90
2023/06/21 01:59:08;;;;;;;12.25;6.35;;;20.30;98.10;;;;;;5028890;28;20298;-89
2023/06/21 02:01:38;;;;;;;11.30;6.32;;;20.50;97.50;;;;;;5026969;28;20205;-90
2023/06/21 02:04:09;;;;;;;13.93;6.90;;;20.50;97.20;;;;;;5029813;28;20206;-90
2023/06/21 02:06:39;;;;;;;11.15;7.13;;;20.50;97.60;;;;;;5030717;28;20202;-90
2023/06/21 02:09:09;;;;;;;11.55;6.88;;;20.30;97.80;;;;;;5032200;28;20301;-89
2023/06/21 02:11:36;;;;;;;13.27;6.75;;;20.30;98.00;;;;;;5033254;28;20252;-90
2023/06/21 02:14:03;;;;;;;10.27;6.85;;;20.30;98.10;;;;;;5022237;28;20201;-89
2023/06/21 02:16:31;;;;;;;11.43;6.50;;;20.20;98.10;;;;;;5007821;28;20207;-89
2023/06/21 02:18:58;;;;;;;10.98;6.97;;;20.20;98.10;;;;;;5007964;28;20249;-90
2023/06/21 02:21:26;;;;;;;8.82;7.03;;;20.10;98.10;;;;;;5027656;28;20207;-90
2023/06/21 02:23:53;;;;;;;9.20;6.53;;;20.10;98.10;;;;;;5027772;28;20206;-90
2023/06/21 02:26:20;;;;;;;9.40;6.80;;;20.00;98.10;;;;;;5028150;28;20202;-90
2023/06/21 02:28:47;;;;;;;11.73;6.93;;;20.00;98.10;;;;;;5011475;28;20198;-90
2023/06/21 02:31:14;;;;;;;9.32;6.55;;;20.10;98.10;;;;;;5025691;28;20721;-90
2023/06/21 02:33:45;;;;;;;10.18;7.22;;;20.00;98.10;;;;;;5028311;28;20203;-89
2023/06/21 02:36:13;;;;;;;12.07;6.78;;;19.90;98.30;;;;;;4996325;28;20243;-90
2023/06/21 02:38:42;;;;;;;11.45;6.78;;;19.70;98.00;;;;;;5029594;28;20222;-90
2023/06/21 02:41:09;;;;;;;13.57;6.85;;;19.70;98.70;;;;;;5025892;28;20198;-89
2023/06/21 02:43:35;;;;;;;11.88;7.40;;;19.70;98.80;;;;;;5030291;28;20198;-90
2023/06/21 02:46:03;;;;;;;15.57;7.65;;;19.70;98.80;;;;;;5012210;28;20230;-90
2023/06/21 02:48:30;;;;;;;12.63;7.10;;;19.60;98.70;;;;;;5011076;28;20199;-90
2023/06/21 02:50:56;;;;;;;11.30;6.55;;;19.50;99.20;;;;;;5026622;28;20203;-89
2023/06/21 02:53:23;;;;;;;13.48;7.10;;;19.50;99.70;;;;;;5030271;28;20203;-90
2023/06/21 02:55:52;;;;;;;11.38;6.78;;;19.60;99.50;;;;;;5019131;28;20215;-90
2023/06/21 02:58:18;;;;;;;14.93;7.70;;;19.60;99.90;;;;;;5030984;28;20581;-89
2023/06/21 03:00:45;;;;;;;14.23;7.15;;;19.50;99.60;;;;;;5028553;28;20199;-89
2023/06/21 03:03:12;;;;;;;9.63;7.00;;;19.50;99.50;;;;;;5034273;28;20208;-89
2023/06/21 03:05:39;;;;;;;14.55;7.88;;;19.50;99.60;;;;;;5023270;28;20647;-90
2023/06/21 03:08:07;;;;;;;9.30;7.10;;;19.40;99.80;;;;;;5023103;28;20253;-90
2023/06/21 03:10:34;;;;;;;12.35;7.45;;;19.40;99.90;;;;;;5031179;28;20264;-89
2023/06/21 03:13:03;;;;;;;12.80;7.88;;;19.40;99.90;;;;;;5029174;28;20199;-89
2023/06/21 03:15:30;;;;;;;8.50;7.05;;;19.30;99.90;;;;;;5026926;28;20297;-90
2023/06/21 03:17:56;;;;;;;18.00;6.90;;;19.30;99.90;;;;;;5028375;28;20742;-90
2023/06/21 03:20:25;;;;;;;11.18;6.95;;;19.30;99.90;;;;;;5030648;28;20203;-90
2023/06/21 03:22:52;;;;;;;12.15;6.60;;;19.40;99.90;;;;;;5029386;28;20206;-89
2023/06/21 03:25:19;;;;;;;10.63;6.70;;;19.40;99.90;;;;;;5031027;28;20209;-89
2023/06/21 03:27:47;;;;;;;11.52;7.15;;;19.40;99.90;;;;;;5006773;28;20206;-90
2023/06/21 03:30:16;;;;;;;14.30;6.72;;;19.40;99.90;;;;;;5011131;28;20281;-90
2023/06/21 03:32:46;;;;;;;10.48;7.07;;;19.30;99.90;;;;;;5009081;28;20232;-90
2023/06/21 03:35:14;;;;;;;11.57;6.93;;;19.20;99.90;;;;;;5028596;28;20285;-89
2023/06/21 03:37:41;;;;;;;11.23;7.82;;;19.20;99.90;;;;;;5030872;28;20203;-90
2023/06/21 03:40:11;;;;;;;15.70;7.88;;;19.10;99.90;;;;;;5008812;28;20230;-89
2023/06/21 03:42:38;;;;;;;16.23;7.90;;;19.10;99.90;;;;;;5017289;28;20261;-89
2023/06/21 03:45:07;;;;;;;10.43;7.57;;;19.10;99.90;;;;;;5030910;28;20655;-88
2023/06/21 03:47:36;;;;;;;13.00;6.93;;;19.10;99.90;;;;;;5032073;28;20229;-89
2023/06/21 03:50:03;;;;;;;15.63;7.72;;;19.20;99.90;;;;;;5027279;28;20211;-90
2023/06/21 03:52:30;;;;;;;10.70;7.50;;;19.20;99.90;;;;;;5015417;28;20199;-90
2023/06/21 03:54:57;;;;;;;13.55;8.25;;;19.20;99.90;;;;;;5033293;28;20580;-90
2023/06/21 03:57:24;;;;;;;11.23;7.32;;;19.10;99.90;;;;;;5031932;28;20270;-90
2023/06/21 03:59:51;;;;;;;9.98;7.38;;;19.20;99.90;;;;;;5033572;28;20226;-89
2023/06/21 04:02:20;;;;;;;12.43;7.40;;;19.30;99.90;;;;;;5019271;28;20218;-90
2023/06/21 04:04:48;;;;;;;12.88;7.50;;;19.40;99.90;;;;;;5032635;28;20229;-89
2023/06/21 04:07:17;;;;;;;10.27;7.35;;;19.40;99.90;;;;;;5034060;28;20210;-92
2023/06/21 04:09:44;;;;;;;10.80;7.13;;;19.40;99.90;;;;;;5041153;28;20793;-91
2023/06/21 04:12:11;;;;;;;9.07;7.03;;;19.40;99.90;;;;;;5023058;28;20195;-92
2023/06/21 04:14:38;;;;;;;12.98;7.65;;;19.40;99.90;;;;;;5024251;28;20199;-90
2023/06/21 04:17:06;;;;;;;11.98;7.78;;;19.40;99.90;;;;;;5016844;28;20200;-91
2023/06/21 04:19:33;;;;;;;11.20;7.22;;;19.40;99.90;;;;;;5031928;28;20223;-89
2023/06/21 04:22:01;;;;;;;10.07;7.25;;;19.40;99.90;;;;;;5036326;28;20566;-90
2023/06/21 04:24:28;;;;;;;11.18;7.50;;;19.40;99.90;;;;;;5023149;28;20211;-88
2023/06/21 04:26:58;;;;;;;11.40;7.03;;;19.40;99.90;;;;;;5030018;28;20206;-88
2023/06/21 04:29:25;;;;;;;11.48;7.25;;;19.50;99.90;;;;;;5038230;28;20205;-85
2023/06/21 04:31:53;;;;;;;10.30;6.88;;;19.50;99.80;;;;;;5029620;28;21061;-92
2023/06/21 04:34:20;;;;;;;15.85;7.18;;;19.60;99.90;;;;;;5035958;28;20258;-91
2023/06/21 04:36:47;;;;;;;10.45;6.82;;;19.70;99.80;;;;;;5013753;28;20218;-91
2023/06/21 04:39:16;;;;;;;10.63;7.47;;;19.70;99.50;;;;;;5041308;28;20318;-90
2023/06/21 04:41:45;;;;;;;10.38;7.57;;;19.80;99.00;;;;;;5041506;28;20207;-91
2023/06/21 04:44:12;;;;;;;13.52;6.90;;;19.90;98.60;;;;;;5025670;28;20241;-91
2023/06/21 04:46:39;;;;;;;11.23;7.35;;;19.90;98.60;;;;;;5042997;28;20243;-91
2023/06/21 04:49:07;;;;;;;12.55;6.88;;;19.90;98.30;;;;;;5030228;28;20202;-90
2023/06/21 04:51:34;;;;;;;16.60;7.05;;;19.90;98.30;;;;;;5035344;28;20716;-90
2023/06/21 04:54:01;;;;;;;14.82;7.13;;;19.90;98.10;;;;;;5029332;28;20196;-90
2023/06/21 04:56:30;;;;;;;12.20;7.40;;;20.00;98.10;;;;;;5024234;28;20198;-91
2023/06/21 04:58:56;;;;;;;17.67;7.32;;;20.10;98.10;;;;;;5030580;28;20274;-91
2023/06/21 05:01:23;;;;;;;13.98;7.18;;;20.10;98.10;;;;;;5026266;28;20602;-90
2023/06/21 05:03:52;;;;;;;13.38;6.72;;;20.10;97.90;;;;;;5036210;28;20195;-90
2023/06/21 05:06:22;;;;;;;9.95;6.70;;;20.20;97.70;;;;;;5020569;28;20249;-88
2023/06/21 05:08:48;;;;;;;11.07;6.40;;;20.20;97.50;;;;;;5006838;28;20261;-91
2023/06/21 05:11:15;;;;;;;11.00;6.90;;;20.30;97.00;;;;;;5028984;28;20199;-89
2023/06/21 05:13:44;;;;;;;10.65;6.70;;;20.40;96.60;;;;;;5011609;28;20254;-90
2023/06/21 05:16:11;;;;;;;12.10;6.95;;;20.50;96.00;;;;;;5030493;28;20202;-89
2023/06/21 05:18:42;;;;;;;10.77;7.35;;;20.60;95.60;;;;;;4998353;28;20237;-89
2023/06/21 05:21:09;;;;;;;12.48;7.10;;;20.80;95.60;;;;;;5001808;28;20543;-89
2023/06/21 05:23:36;;;;;;;12.98;7.03;;;20.80;95.80;;;;;;5018225;28;20610;-90
2023/06/21 05:26:03;;;;;;;10.80;7.07;;;20.90;95.50;;;;;;5004750;28;20206;-88
2023/06/21 05:28:30;;;;;;;11.80;6.97;;;21.00;95.10;;;;;;5011474;28;20203;-90
2023/06/21 05:33:39;;;;;;;10.98;7.07;;;21.40;93.70;;;;;;5024989;28;20195;-89
2023/06/21 05:36:07;;;;;;;9.85;7.18;;;21.50;93.00;;;;;;5020954;28;20193;-91
2023/06/21 05:38:34;;;;;;;13.02;7.03;;;21.70;92.40;;;;;;5040438;28;20253;-90
2023/06/21 05:41:01;;;;;;;9.25;6.28;;;21.90;91.80;;;;;;5037296;28;20210;-90
2023/06/21 05:43:27;;;;;;;11.68;7.25;;;22.10;91.60;;;;;;5033298;28;20666;-91
2023/06/21 05:45:54;;;;;;;12.93;6.50;;;22.40;90.70;;;;;;5036061;28;20241;-90
2023/06/21 05:48:23;;;;;;;10.45;6.47;;;22.70;88.80;;;;;;5035544;28;20205;-90
2023/06/21 05:50:50;;;;;;;11.63;6.80;;;23.10;87.00;;;;;;5019813;28;20209;-91
2023/06/21 05:53:17;;;;;;;12.32;7.00;;;23.70;80.60;;;;;;5034025;28;20199;-91
2023/06/21 05:55:46;;;;;;;10.73;6.38;;;24.00;76.70;;;;;;5024185;28;20205;-90
2023/06/21 05:58:12;;;;;;;11.95;6.13;;;24.10;73.80;;;;;;5041102;28;20576;-91
2023/06/21 06:00:39;;;;;;;11.10;6.32;;;24.40;68.20;;;;;;5037831;28;20262;-90
2023/06/21 06:03:08;;;;;;;12.73;6.55;;;24.20;69.80;;;;;;5046055;28;20199;-90
2023/06/21 06:05:36;;;;;;;11.65;6.20;;;24.00;68.60;;;;;;5024191;28;20218;-91
2023/06/21 06:08:04;;;;;;;13.18;6.75;;;23.90;68.60;;;;;;5040580;28;20206;-91
2023/06/21 06:10:30;;;;;;;16.15;7.15;;;23.70;69.20;;;;;;5033086;28;20203;-91
2023/06/21 06:12:57;;;;;;;11.32;6.65;;;23.60;69.40;;;;;;5037546;28;20207;-90
2023/06/21 06:15:24;;;;;;;11.23;6.55;;;23.50;70.70;;;;;;5017459;28;20202;-91
2023/06/21 06:17:51;;;;;;;14.52;6.93;;;23.50;70.10;;;;;;5025314;28;20218;-90
2023/06/21 06:20:20;;;;;;;13.07;6.50;;;23.50;71.40;;;;;;5037714;28;20563;-91
2023/06/21 06:22:48;;;;;;;12.90;6.80;;;23.60;73.10;;;;;;5032916;28;20252;-91
2023/06/21 06:25:15;;;;;;;15.45;6.85;;;23.80;66.90;;;;;;5030391;28;20202;-90
2023/06/21 06:27:42;;;;;;;7.72;5.60;;;23.80;64.80;;;;;;5038405;28;20205;-91
2023/06/21 06:30:10;;;;;;;10.98;5.90;;;24.00;65.80;;;;;;5037923;28;20206;-90
2023/06/21 06:32:36;;;;;;;10.40;6.38;;;24.00;61.40;;;;;;5035161;28;20194;-91
2023/06/21 06:35:04;;;;;;;11.98;5.88;;;24.00;60.70;;;;;;5036890;28;20217;-90
2023/06/21 06:37:31;;;;;;;10.48;6.20;;;24.00;59.60;;;;;;5037626;28;20202;-91
2023/06/21 06:39:59;;;;;;;11.70;5.95;;;24.00;59.50;;;;;;5034497;28;20223;-91
2023/06/21 06:42:26;;;;;;;11.95;6.20;;;24.10;59.60;;;;;;5037844;28;20195;-91
2023/06/21 06:44:53;;;;;;;12.50;6.80;;;24.00;59.50;;;;;;5036097;28;20206;-90
2023/06/21 06:47:20;;;;;;;13.25;6.50;;;24.20;56.80;;;;;;5036714;28;20199;-90
2023/06/21 06:49:47;;;;;;;11.88;5.93;;;24.30;58.80;;;;;;5040470;28;20229;-90
2023/06/21 06:52:14;;;;;;;11.93;7.25;;;24.40;58.60;;;;;;5034966;28;20277;-90
2023/06/21 06:54:41;;;;;;;15.32;6.82;;;24.40;57.50;;;;;;5029915;28;20199;-90
2023/06/21 06:57:09;;;;;;;11.68;6.50;;;24.40;59.90;;;;;;5016026;28;20203;-91
2023/06/21 06:59:36;;;;;;;11.15;6.40;;;24.60;53.40;;;;;;5031494;28;20222;-90
2023/06/21 07:02:03;;;;;;;13.82;6.55;;;24.70;55.30;;;;;;5037403;28;20207;-91
2023/06/21 07:04:30;;;;;;;9.60;6.50;;;24.80;54.90;;;;;;5022341;28;20203;-91
2023/06/21 07:06:58;;;;;;;11.43;6.30;;;24.90;53.20;;;;;;5037161;28;20198;-90
2023/06/21 07:09:25;;;;;;;15.52;6.63;;;25.10;51.30;;;;;;5041684;28;20218;-88
2023/06/21 07:11:56;;;;;;;13.68;6.50;;;25.60;47.80;;;;;;5042825;28;20198;-89
2023/06/21 07:14:24;;;;;;;16.58;7.10;;;26.40;40.20;;;;;;5041663;28;20209;-88
2023/06/21 07:16:51;;;;;;;12.52;6.90;;;26.70;37.30;;;;;;5044773;28;20208;-88
2023/06/21 07:19:18;;;;;;;15.90;6.97;;;27.10;34.10;;;;;;5044355;28;20232;-88
2023/06/21 07:21:45;;;;;;;9.95;6.65;;;27.10;33.20;;;;;;5048617;28;20194;-88
2023/06/21 07:24:12;;;;;;;13.48;6.85;;;27.30;31.80;;;;;;5031950;28;20229;-88
2023/06/21 07:26:39;;;;;;;14.35;6.70;;;27.40;31.20;;;;;;5029383;28;20200;-88
2023/06/21 07:29:06;;;;;;;15.85;6.72;;;27.30;32.20;;;;;;5050269;28;20216;-88
2023/06/21 07:31:34;;;;;;;38.33;10.32;;;27.30;32.60;;;;;;5047678;28;20194;-88
2023/06/21 07:34:01;;;;;;;14.45;7.72;;;27.10;31.90;;;;;;5043445;28;20203;-88
2023/06/21 07:36:29;;;;;;;12.20;6.45;;;26.90;32.50;;;;;;5045473;28;20198;-89
2023/06/21 07:38:56;;;;;;;13.45;6.60;;;26.80;33.40;;;;;;5039326;28;20241;-89
2023/06/21 07:41:22;;;;;;;13.25;6.18;;;26.70;33.10;;;;;;5028396;28;20558;-88
2023/06/21 07:43:49;;;;;;;11.07;6.40;;;26.70;32.70;;;;;;5019331;28;20202;-88
2023/06/21 07:46:16;;;;;;;16.48;7.40;;;26.60;31.20;;;;;;5041986;28;20212;-88
2023/06/21 07:48:45;;;;;;;12.18;6.82;;;26.50;33.90;;;;;;5042508;28;20206;-88
2023/06/21 07:51:12;;;;;;;10.13;6.88;;;26.50;34.50;;;;;;5040439;28;20217;-88
2023/06/21 07:53:39;;;;;;;12.75;6.50;;;26.60;33.80;;;;;;5040390;28;20198;-89
2023/06/21 07:56:06;;;;;;;11.95;6.63;;;26.50;33.20;;;;;;5040347;28;20198;-88
2023/06/21 07:58:33;;;;;;;11.85;6.40;;;26.50;32.30;;;;;;5016465;28;20595;-88
2023/06/21 08:01:01;;;;;;;14.48;6.47;;;26.70;33.20;;;;;;5038990;28;20226;-88
2023/06/21 08:03:28;;;;;;;11.27;6.90;;;26.80;33.60;;;;;;5031479;28;20210;-89
2023/06/21 08:05:56;;;;;;;11.93;6.63;;;26.90;32.70;;;;;;5043534;28;20566;-89
2023/06/21 08:08:23;;;;;;;14.32;6.30;;;27.10;31.40;;;;;;5047391;28;20214;-88
2023/06/21 08:10:50;;;;;;;13.25;6.65;;;27.40;30.00;;;;;;5036280;28;20206;-88
2023/06/21 08:13:22;;;;;;;15.30;6.53;;;27.50;28.50;;;;;;5043164;28;20201;-88
2023/06/21 08:15:51;;;;;;;18.88;6.90;;;27.50;29.40;;;;;;5048397;28;20205;-88
2023/06/21 08:18:17;;;;;;;14.57;6.28;;;27.60;28.10;;;;;;5051457;28;20230;-88
2023/06/21 08:20:44;;;;;;;11.80;5.70;;;28.20;23.70;;;;;;5047606;28;20218;-89
2023/06/21 08:23:13;;;;;;;15.70;5.90;;;29.60;20.60;;;;;;5042567;28;20230;-91
2023/06/21 08:25:40;;;;;;;9.10;6.15;;;31.00;17.20;;;;;;5037275;28;20209;-91
2023/06/21 08:28:07;;;;;;;10.35;6.03;;;32.80;14.20;;;;;;5035703;28;20203;-91
2023/06/21 08:30:34;;;;;;;13.25;6.68;;;33.70;12.20;;;;;;5034797;28;20584;-92
2023/06/21 08:33:01;;;;;;;9.98;5.97;;;33.90;11.10;;;;;;5036685;28;20228;-92
2023/06/21 08:35:30;;;;;;;10.73;6.57;;;33.90;11.20;;;;;;5014572;28;20976;-91
2023/06/21 08:37:58;;;;;;;10.30;6.72;;;34.30;11.10;;;;;;5001803;28;20546;-92
2023/06/21 08:43:10;;;;;;;10.10;6.68;;;34.70;9.30;;;;;;5031248;28;20285;-91
2023/06/21 08:45:52;;;;;;;12.52;6.85;;;34.40;9.20;;;;;;5012143;28;20662;-92
2023/06/21 08:53:57;;;;;;;13.90;7.47;;;35.30;8.90;;;;;;5028099;28;20198;-92
2023/06/21 08:56:35;;;;;;;13.95;7.85;;;35.40;8.20;;;;;;5031113;28;20221;-92
2023/06/21 09:05:15;;;;;;;12.00;7.35;;;36.30;6.60;;;;;;5029844;28;20674;-92
2023/06/21 09:07:43;;;;;;;11.25;7.10;;;35.90;7.30;;;;;;5027713;28;20204;-92
2023/06/21 09:10:15;;;;;;;11.20;7.05;;;36.10;6.80;;;;;;5019819;28;20237;-92
2023/06/21 09:18:35;;;;;;;9.00;6.72;;;34.60;9.00;;;;;;5014013;28;20686;-92
2023/06/21 09:21:06;;;;;;;10.98;7.57;;;34.60;9.30;;;;;;5012987;28;20225;-92
2023/06/21 09:23:34;;;;;;;11.55;7.45;;;35.70;6.60;;;;;;5010095;28;20205;-92
2023/06/21 09:26:08;;;;;;;13.35;8.85;;;35.90;6.70;;;;;;5019187;28;20198;-92
2023/06/21 09:28:44;;;;;;;10.73;6.82;;;35.70;7.50;;;;;;5030426;28;20198;-91
2023/06/21 09:31:12;;;;;;;13.40;9.23;;;36.50;5.70;;;;;;5033975;28;20288;-92
2023/06/21 09:33:51;;;;;;;12.25;7.30;;;36.10;6.70;;;;;;5033950;28;20285;-91
2023/06/21 09:36:20;;;;;;;12.20;8.23;;;35.90;5.90;;;;;;5024641;28;20202;-92
2023/06/21 09:38:47;;;;;;;9.95;8.13;;;36.30;5.90;;;;;;5002261;28;20740;-92
2023/06/21 09:41:14;;;;;;;13.35;7.85;;;35.90;6.90;;;;;;5018212;28;20960;-91
2023/06/21 09:52:46;;;;;;;11.57;7.93;;;34.70;9.90;;;;;;5028614;28;20206;-91
2023/06/21 09:58:22;;;;;;;9.25;7.22;;;36.00;7.00;;;;;;5023157;28;20206;-92
2023/06/21 10:04:01;;;;;;;10.00;7.95;;;36.00;7.50;;;;;;5028634;28;20221;-92
2023/06/21 10:06:29;;;;;;;13.50;8.20;;;34.30;10.30;;;;;;5033203;28;20201;-91
2023/06/21 10:08:56;;;;;;;13.55;9.60;;;33.60;10.00;;;;;;5033524;28;20221;-92
2023/06/21 10:11:23;;;;;;;12.20;8.32;;;33.10;11.40;;;;;;5032502;28;20209;-92
2023/06/21 10:13:49;;;;;;;13.00;7.07;;;32.20;13.30;;;;;;5032989;28;20258;-92
2023/06/21 10:16:20;;;;;;;12.32;7.45;;;31.50;14.60;;;;;;5039300;28;20202;-91
2023/06/21 10:18:48;;;;;;;16.35;7.80;;;30.90;17.10;;;;;;5021795;28;20226;-91
2023/06/21 10:21:16;;;;;;;13.52;7.30;;;30.20;16.70;;;;;;5009403;28;20221;-91
2023/06/21 10:23:44;;;;;;;11.55;7.47;;;29.70;17.60;;;;;;5023817;28;20194;-90
2023/06/21 10:26:15;;;;;;;15.73;7.80;;;29.20;19.40;;;;;;5042349;28;20208;-91
2023/06/21 10:28:46;;;;;;;13.27;7.22;;;29.10;19.30;;;;;;5008131;28;20224;-91
2023/06/21 10:31:13;;;;;;;13.65;6.65;;;29.30;19.70;;;;;;5009349;28;20206;-90
2023/06/21 10:33:45;;;;;;;19.20;7.18;;;29.50;19.20;;;;;;5044219;28;20202;-91
2023/06/21 10:36:17;;;;;;;16.52;7.60;;;29.60;18.70;;;;;;5040107;28;20198;-91
2023/06/21 10:38:47;;;;;;;16.48;7.90;;;29.60;18.70;;;;;;5030553;28;20263;-91
2023/06/21 10:41:15;;;;;;;10.57;6.55;;;29.50;18.00;;;;;;5042434;28;20221;-91
2023/06/21 10:43:46;;;;;;;14.95;7.32;;;29.60;18.70;;;;;;5036666;28;20205;-91
2023/06/21 10:46:13;;;;;;;10.05;6.93;;;29.80;18.50;;;;;;5018281;28;20194;-91
2023/06/21 10:48:42;;;;;;;14.90;7.32;;;30.30;18.50;;;;;;5042924;28;20258;-91
2023/06/21 10:51:11;;;;;;;12.50;7.40;;;30.70;17.00;;;;;;5028829;28;20218;-90
2023/06/21 10:53:39;;;;;;;12.27;7.53;;;31.20;17.20;;;;;;5040768;28;20204;-91
2023/06/21 10:56:07;;;;;;;10.45;7.13;;;31.80;15.70;;;;;;5020471;28;20213;-92
2023/06/21 10:58:34;;;;;;;12.45;7.00;;;32.30;14.70;;;;;;5041042;28;20202;-91
2023/06/21 11:01:02;;;;;;;13.05;7.15;;;31.80;14.50;;;;;;5045690;28;20239;-91
2023/06/21 11:03:29;;;;;;;20.45;6.47;;;31.20;17.10;;;;;;5032150;28;20194;-89
2023/06/21 11:06:26;;;;;;;18.08;5.10;;;30.20;15.10;;;;;;5045401;28;20202;-90
2023/06/21 11:08:53;;;;;;;15.65;4.90;;;29.10;15.20;;;;;;5038213;28;20229;-88
2023/06/21 11:11:36;;;;;;;27.88;5.60;;;28.60;15.90;;;;;;5038568;28;20209;-87
2023/06/21 11:14:04;;;;;;;18.25;4.70;;;28.50;15.90;;;;;;5019686;28;20206;-88
2023/06/21 11:16:32;;;;;;;17.85;5.63;;;28.30;16.40;;;;;;5039668;28;20198;-88
2023/06/21 11:19:04;;;;;;;18.80;5.47;;;28.00;16.50;;;;;;5022195;28;20643;-87
2023/06/21 11:21:40;;;;;;;22.45;6.05;;;27.80;16.20;;;;;;5033840;28;20218;-88
2023/06/21 11:24:12;;;;;;;15.68;5.57;;;27.60;16.90;;;;;;5022688;28;20217;-89
2023/06/21 11:27:06;;;;;;;18.98;5.90;;;27.60;18.60;;;;;;5038323;28;20269;-88
2023/06/21 11:29:50;;;;;;;18.48;5.75;;;27.70;17.90;;;;;;5039477;28;20233;-88
2023/06/21 11:32:22;;;;;;;19.33;5.72;;;28.20;16.90;;;;;;5032377;28;20332;-89
2023/06/21 11:35:12;;;;;;;13.82;5.05;;;28.20;15.80;;;;;;5034104;28;20202;-88
2023/06/21 11:37:50;;;;;;;20.55;5.55;;;28.20;17.00;;;;;;5038061;28;20213;-88
2023/06/21 11:40:26;;;;;;;15.30;6.05;;;28.30;18.00;;;;;;5040678;28;20220;-89
2023/06/21 11:42:53;;;;;;;12.20;4.60;;;28.50;15.90;;;;;;5041499;28;20205;-88
2023/06/21 11:45:22;;;;;;;19.90;5.32;;;28.70;16.60;;;;;;5042432;28;20198;-89
2023/06/21 11:48:00;;;;;;;18.98;5.43;;;28.40;16.80;;;;;;5026285;28;20206;-88
2023/06/21 11:50:34;;;;;;;16.33;5.75;;;28.30;16.80;;;;;;5039776;28;20232;-88
2023/06/21 11:53:42;;;;;;;16.48;6.30;;;28.70;16.80;;;;;;5038258;28;20202;-91
2023/06/21 11:56:13;;;;;;;19.60;6.45;;;29.00;16.10;;;;;;5036860;28;20198;-90
2023/06/21 11:58:40;;;;;;;17.50;6.05;;;29.10;16.20;;;;;;5036224;28;20210;-90
2023/06/21 12:01:08;;;;;;;18.77;6.07;;;28.90;16.10;;;;;;5005595;28;20226;-90
2023/06/21 12:03:35;;;;;;;17.08;6.10;;;29.00;16.10;;;;;;5043501;28;20240;-91
2023/06/21 12:06:04;;;;;;;19.35;6.10;;;28.90;16.10;;;;;;5048603;28;20198;-91
2023/06/21 12:08:33;;;;;;;16.60;5.30;;;29.10;16.20;;;;;;5034896;28;20263;-90
2023/06/21 12:11:02;;;;;;;15.32;5.85;;;29.30;16.30;;;;;;5032641;28;20202;-90
2023/06/21 12:13:31;;;;;;;17.55;5.88;;;29.40;16.30;;;;;;5011668;28;20210;-91
2023/06/21 12:15:59;;;;;;;16.48;5.18;;;29.40;16.40;;;;;;5012881;28;20286;-86
2023/06/21 12:18:28;;;;;;;17.55;5.35;;;29.20;16.20;;;;;;5027681;28;20707;-87
2023/06/21 12:20:57;;;;;;;16.80;5.15;;;29.10;16.20;;;;;;5029004;28;20225;-88
2023/06/21 12:23:24;;;;;;;17.40;5.35;;;29.00;16.10;;;;;;5037779;28;20635;-90
2023/06/21 12:25:55;;;;;;;16.58;5.10;;;29.10;16.20;;;;;;5027596;28;20201;-88
2023/06/21 12:28:23;;;;;;;17.10;5.25;;;29.30;16.30;;;;;;5035344;28;20230;-87
2023/06/21 12:30:53;;;;;;;16.48;4.97;;;29.30;14.50;;;;;;5013628;28;20221;-88
2023/06/21 12:33:23;;;;;;;19.50;5.57;;;29.30;14.60;;;;;;5025518;28;20191;-87
2023/06/21 12:35:50;;;;;;;18.33;5.70;;;29.30;14.90;;;;;;5030419;28;20214;-88
2023/06/21 12:38:18;;;;;;;18.08;6.05;;;29.10;14.30;;;;;;5008954;28;20252;-88
2023/06/21 12:40:58;;;;;;;18.17;5.65;;;29.20;14.30;;;;;;5026209;28;20217;-88
2023/06/21 12:43:41;;;;;;;22.77;6.00;;;29.40;13.40;;;;;;5029609;28;20216;-88
2023/06/21 12:46:09;;;;;;;17.20;5.50;;;29.40;13.80;;;;;;5025349;28;20198;-88
2023/06/21 12:48:37;;;;;;;17.98;5.75;;;29.40;12.50;;;;;;5029135;28;20202;-87
2023/06/21 12:51:04;;;;;;;16.45;5.22;;;29.40;11.20;;;;;;5011273;28;20206;-87
2023/06/21 12:53:32;;;;;;;19.63;5.30;;;29.40;12.10;;;;;;5030361;28;20205;-86
2023/06/21 12:56:09;;;;;;;22.58;5.72;;;29.40;12.30;;;;;;5030244;28;20529;-85
2023/06/21 12:58:37;;;;;;;22.63;5.90;;;29.20;13.10;;;;;;5028171;28;20202;-85
2023/06/21 13:01:05;;;;;;;15.88;5.22;;;29.20;12.60;;;;;;5030331;28;20218;-85
2023/06/21 13:03:32;;;;;;;19.55;5.50;;;29.10;12.30;;;;;;5027103;28;20230;-86
2023/06/21 13:06:00;;;;;;;18.23;5.07;;;29.00;12.60;;;;;;5032004;28;20209;-84
2023/06/21 13:08:27;;;;;;;12.88;5.00;;;28.80;13.10;;;;;;5028771;28;20547;-85
2023/06/21 13:10:57;;;;;;;18.10;4.90;;;28.80;13.30;;;;;;5028141;28;20205;-85
2023/06/21 13:13:26;;;;;;;17.48;5.65;;;28.70;13.80;;;;;;5031319;28;20198;-85
2023/06/21 13:15:54;;;;;;;18.67;5.47;;;28.80;13.80;;;;;;5032223;28;20198;-85
2023/06/21 13:18:22;;;;;;;14.52;5.25;;;28.90;13.70;;;;;;5029851;28;20709;-85
2023/06/21 13:20:50;;;;;;;17.05;5.22;;;29.10;14.10;;;;;;5029394;28;20213;-85
2023/06/21 13:23:18;;;;;;;14.32;5.13;;;29.00;14.00;;;;;;5029106;28;20201;-85
2023/06/21 13:25:45;;;;;;;19.63;5.35;;;29.10;13.30;;;;;;5028763;28;20202;-83